sensor_id;sensor_type;location;lat;lon;timestamp;P1;durP1;ratioP1;P2;durP2;ratioP2
19780;SDS011;10050;55.492;13.506;2022-07-23T00:00:49;5.60;;;2.63;;
19780;SDS011;10050;55.492;13.506;2022-07-23T00:03:14;7.60;;;2.67;;
19780;SDS011;10050;55.492;13.506;2022-07-23T00:05:40;7.40;;;2.83;;
19780;SDS011;10050;55.492;13.506;2022-07-23T00:08:06;5.90;;;2.03;;
19780;SDS011;10050;55.492;13.506;2022-07-23T00:10:32;5.73;;;2.43;;
19780;SDS011;10050;55.492;13.506;2022-07-23T00:12:58;6.00;;;2.43;;
19780;SDS011;10050;55.492;13.506;2022-07-23T00:15:23;5.43;;;2.30;;
19780;SDS011;10050;55.492;13.506;2022-07-23T00:17:49;7.37;;;2.23;;
19780;SDS011;10050;55.492;13.506;2022-07-23T00:20:15;5.70;;;2.40;;
19780;SDS011;10050;55.492;13.506;2022-07-23T00:22:52;7.90;;;2.07;;
19780;SDS011;10050;55.492;13.506;2022-07-23T00:25:19;10.30;;;2.47;;
19780;SDS011;10050;55.492;13.506;2022-07-23T00:27:46;5.70;;;2.43;;
19780;SDS011;10050;55.492;13.506;2022-07-23T00:30:12;5.43;;;2.27;;
19780;SDS011;10050;55.492;13.506;2022-07-23T00:32:48;6.23;;;2.13;;
19780;SDS011;10050;55.492;13.506;2022-07-23T00:35:16;6.43;;;2.27;;
19780;SDS011;10050;55.492;13.506;2022-07-23T00:37:44;6.07;;;2.37;;
19780;SDS011;10050;55.492;13.506;2022-07-23T00:40:10;4.93;;;2.50;;
19780;SDS011;10050;55.492;13.506;2022-07-23T00:42:36;5.13;;;2.10;;
19780;SDS011;10050;55.492;13.506;2022-07-23T00:45:02;6.80;;;2.20;;
19780;SDS011;10050;55.492;13.506;2022-07-23T00:47:28;10.07;;;2.70;;
19780;SDS011;10050;55.492;13.506;2022-07-23T00:49:54;6.57;;;2.50;;
19780;SDS011;10050;55.492;13.506;2022-07-23T00:52:19;4.60;;;2.43;;
19780;SDS011;10050;55.492;13.506;2022-07-23T00:54:45;7.73;;;2.03;;
19780;SDS011;10050;55.492;13.506;2022-07-23T00:57:11;4.83;;;2.00;;
19780;SDS011;10050;55.492;13.506;2022-07-23T00:59:38;4.73;;;2.17;;
19780;SDS011;10050;55.492;13.506;2022-07-23T01:02:04;4.97;;;2.13;;
19780;SDS011;10050;55.492;13.506;2022-07-23T01:04:29;2.67;;;2.00;;
19780;SDS011;10050;55.492;13.506;2022-07-23T01:06:55;3.20;;;1.87;;
19780;SDS011;10050;55.492;13.506;2022-07-23T01:09:21;2.73;;;2.27;;
19780;SDS011;10050;55.492;13.506;2022-07-23T01:11:46;4.03;;;1.90;;
19780;SDS011;10050;55.492;13.506;2022-07-23T01:14:16;3.73;;;2.10;;
19780;SDS011;10050;55.492;13.506;2022-07-23T01:16:43;4.17;;;1.93;;
19780;SDS011;10050;55.492;13.506;2022-07-23T01:19:11;3.73;;;2.07;;
19780;SDS011;10050;55.492;13.506;2022-07-23T01:21:41;4.73;;;1.90;;
19780;SDS011;10050;55.492;13.506;2022-07-23T01:24:12;3.07;;;2.03;;
19780;SDS011;10050;55.492;13.506;2022-07-23T01:26:44;7.63;;;2.80;;
19780;SDS011;10050;55.492;13.506;2022-07-23T01:29:11;5.30;;;2.10;;
19780;SDS011;10050;55.492;13.506;2022-07-23T01:31:37;3.57;;;2.50;;
19780;SDS011;10050;55.492;13.506;2022-07-23T01:34:02;2.43;;;2.00;;
19780;SDS011;10050;55.492;13.506;2022-07-23T01:36:29;4.33;;;1.93;;
19780;SDS011;10050;55.492;13.506;2022-07-23T01:38:55;5.03;;;1.90;;
19780;SDS011;10050;55.492;13.506;2022-07-23T01:41:21;5.63;;;2.07;;
19780;SDS011;10050;55.492;13.506;2022-07-23T01:43:46;4.50;;;2.10;;
19780;SDS011;10050;55.492;13.506;2022-07-23T01:46:12;3.70;;;2.00;;
19780;SDS011;10050;55.492;13.506;2022-07-23T01:48:38;3.73;;;1.83;;
19780;SDS011;10050;55.492;13.506;2022-07-23T01:51:03;2.43;;;1.87;;
19780;SDS011;10050;55.492;13.506;2022-07-23T01:53:29;3.40;;;1.53;;
19780;SDS011;10050;55.492;13.506;2022-07-23T01:55:58;3.07;;;1.70;;
19780;SDS011;10050;55.492;13.506;2022-07-23T01:58:24;2.90;;;1.60;;
19780;SDS011;10050;55.492;13.506;2022-07-23T02:00:50;3.33;;;1.60;;
19780;SDS011;10050;55.492;13.506;2022-07-23T02:03:16;4.47;;;1.60;;
19780;SDS011;10050;55.492;13.506;2022-07-23T02:05:41;3.23;;;1.90;;
19780;SDS011;10050;55.492;13.506;2022-07-23T02:08:07;6.63;;;1.70;;
19780;SDS011;10050;55.492;13.506;2022-07-23T02:10:33;4.30;;;1.53;;
19780;SDS011;10050;55.492;13.506;2022-07-23T02:12:58;4.73;;;1.70;;
19780;SDS011;10050;55.492;13.506;2022-07-23T02:15:24;5.07;;;1.70;;
19780;SDS011;10050;55.492;13.506;2022-07-23T02:17:50;3.00;;;2.00;;
19780;SDS011;10050;55.492;13.506;2022-07-23T02:20:15;4.13;;;1.67;;
19780;SDS011;10050;55.492;13.506;2022-07-23T02:22:41;3.53;;;1.73;;
19780;SDS011;10050;55.492;13.506;2022-07-23T02:25:07;2.73;;;1.63;;
19780;SDS011;10050;55.492;13.506;2022-07-23T02:27:33;2.60;;;1.30;;
19780;SDS011;10050;55.492;13.506;2022-07-23T02:30:00;5.67;;;1.83;;
19780;SDS011;10050;55.492;13.506;2022-07-23T02:32:25;3.33;;;2.10;;
19780;SDS011;10050;55.492;13.506;2022-07-23T02:34:52;2.73;;;1.80;;
19780;SDS011;10050;55.492;13.506;2022-07-23T02:37:17;3.90;;;1.90;;
19780;SDS011;10050;55.492;13.506;2022-07-23T02:39:43;3.13;;;1.43;;
19780;SDS011;10050;55.492;13.506;2022-07-23T02:42:09;4.63;;;2.10;;
19780;SDS011;10050;55.492;13.506;2022-07-23T02:44:35;4.97;;;2.60;;
19780;SDS011;10050;55.492;13.506;2022-07-23T02:47:01;4.83;;;1.90;;
19780;SDS011;10050;55.492;13.506;2022-07-23T02:49:26;4.97;;;2.20;;
19780;SDS011;10050;55.492;13.506;2022-07-23T02:51:52;3.63;;;1.60;;
19780;SDS011;10050;55.492;13.506;2022-07-23T02:54:18;5.83;;;1.60;;
19780;SDS011;10050;55.492;13.506;2022-07-23T02:56:43;4.67;;;1.60;;
19780;SDS011;10050;55.492;13.506;2022-07-23T02:59:09;4.13;;;1.60;;
19780;SDS011;10050;55.492;13.506;2022-07-23T03:01:35;4.07;;;1.97;;
19780;SDS011;10050;55.492;13.506;2022-07-23T03:04:01;5.23;;;2.10;;
19780;SDS011;10050;55.492;13.506;2022-07-23T03:06:27;4.03;;;2.47;;
19780;SDS011;10050;55.492;13.506;2022-07-23T03:08:53;4.93;;;2.27;;
19780;SDS011;10050;55.492;13.506;2022-07-23T03:11:19;8.33;;;2.23;;
19780;SDS011;10050;55.492;13.506;2022-07-23T03:13:44;4.40;;;2.47;;
19780;SDS011;10050;55.492;13.506;2022-07-23T03:16:10;4.80;;;1.80;;
19780;SDS011;10050;55.492;13.506;2022-07-23T03:18:36;3.43;;;2.00;;
19780;SDS011;10050;55.492;13.506;2022-07-23T03:21:02;5.13;;;2.27;;
19780;SDS011;10050;55.492;13.506;2022-07-23T03:23:27;5.17;;;2.03;;
19780;SDS011;10050;55.492;13.506;2022-07-23T03:25:53;3.50;;;1.70;;
19780;SDS011;10050;55.492;13.506;2022-07-23T03:28:18;4.57;;;2.30;;
19780;SDS011;10050;55.492;13.506;2022-07-23T03:30:44;4.10;;;2.37;;
19780;SDS011;10050;55.492;13.506;2022-07-23T03:33:15;3.30;;;2.17;;
19780;SDS011;10050;55.492;13.506;2022-07-23T03:35:42;4.13;;;1.63;;
19780;SDS011;10050;55.492;13.506;2022-07-23T03:38:08;6.60;;;1.60;;
19780;SDS011;10050;55.492;13.506;2022-07-23T03:40:34;6.53;;;2.47;;
19780;SDS011;10050;55.492;13.506;2022-07-23T03:42:59;5.13;;;2.13;;
19780;SDS011;10050;55.492;13.506;2022-07-23T03:45:25;5.10;;;2.00;;
19780;SDS011;10050;55.492;13.506;2022-07-23T03:47:51;5.10;;;1.90;;
19780;SDS011;10050;55.492;13.506;2022-07-23T03:50:17;5.47;;;1.97;;
19780;SDS011;10050;55.492;13.506;2022-07-23T03:52:43;7.07;;;2.50;;
19780;SDS011;10050;55.492;13.506;2022-07-23T03:55:09;5.33;;;2.03;;
19780;SDS011;10050;55.492;13.506;2022-07-23T03:57:34;3.13;;;1.73;;
19780;SDS011;10050;55.492;13.506;2022-07-23T04:00:00;3.83;;;1.93;;
19780;SDS011;10050;55.492;13.506;2022-07-23T04:02:26;8.33;;;2.37;;
19780;SDS011;10050;55.492;13.506;2022-07-23T04:04:53;4.40;;;1.80;;
19780;SDS011;10050;55.492;13.506;2022-07-23T04:07:18;3.47;;;1.80;;
19780;SDS011;10050;55.492;13.506;2022-07-23T04:09:44;6.67;;;2.47;;
19780;SDS011;10050;55.492;13.506;2022-07-23T04:12:10;4.63;;;2.30;;
19780;SDS011;10050;55.492;13.506;2022-07-23T04:14:35;6.07;;;2.60;;
19780;SDS011;10050;55.492;13.506;2022-07-23T04:17:01;7.40;;;2.40;;
19780;SDS011;10050;55.492;13.506;2022-07-23T04:19:27;14.13;;;3.20;;
19780;SDS011;10050;55.492;13.506;2022-07-23T04:21:53;6.07;;;3.50;;
19780;SDS011;10050;55.492;13.506;2022-07-23T04:24:18;4.67;;;2.57;;
19780;SDS011;10050;55.492;13.506;2022-07-23T04:26:44;9.83;;;2.83;;
19780;SDS011;10050;55.492;13.506;2022-07-23T04:29:10;7.83;;;2.40;;
19780;SDS011;10050;55.492;13.506;2022-07-23T04:31:36;6.03;;;2.70;;
19780;SDS011;10050;55.492;13.506;2022-07-23T04:34:01;8.67;;;2.67;;
19780;SDS011;10050;55.492;13.506;2022-07-23T04:36:27;3.07;;;2.13;;
19780;SDS011;10050;55.492;13.506;2022-07-23T04:38:53;8.57;;;3.07;;
19780;SDS011;10050;55.492;13.506;2022-07-23T04:41:19;6.63;;;2.80;;
19780;SDS011;10050;55.492;13.506;2022-07-23T04:43:45;6.50;;;2.83;;
19780;SDS011;10050;55.492;13.506;2022-07-23T04:46:11;5.33;;;2.00;;
19780;SDS011;10050;55.492;13.506;2022-07-23T04:48:37;5.13;;;2.53;;
19780;SDS011;10050;55.492;13.506;2022-07-23T04:51:03;7.23;;;2.60;;
19780;SDS011;10050;55.492;13.506;2022-07-23T04:53:28;7.50;;;2.60;;
19780;SDS011;10050;55.492;13.506;2022-07-23T04:55:54;3.73;;;2.57;;
19780;SDS011;10050;55.492;13.506;2022-07-23T04:58:20;6.10;;;2.17;;
19780;SDS011;10050;55.492;13.506;2022-07-23T05:00:46;9.03;;;3.30;;
19780;SDS011;10050;55.492;13.506;2022-07-23T05:03:11;5.37;;;2.90;;
19780;SDS011;10050;55.492;13.506;2022-07-23T05:05:37;6.33;;;2.63;;
19780;SDS011;10050;55.492;13.506;2022-07-23T05:08:03;4.47;;;2.80;;
19780;SDS011;10050;55.492;13.506;2022-07-23T05:10:29;7.83;;;2.80;;
19780;SDS011;10050;55.492;13.506;2022-07-23T05:12:54;7.23;;;2.90;;
19780;SDS011;10050;55.492;13.506;2022-07-23T05:15:20;5.17;;;2.40;;
19780;SDS011;10050;55.492;13.506;2022-07-23T05:17:46;3.87;;;2.80;;
19780;SDS011;10050;55.492;13.506;2022-07-23T05:20:11;7.20;;;3.23;;
19780;SDS011;10050;55.492;13.506;2022-07-23T05:22:38;4.87;;;2.63;;
19780;SDS011;10050;55.492;13.506;2022-07-23T05:25:04;5.27;;;2.43;;
19780;SDS011;10050;55.492;13.506;2022-07-23T05:27:30;7.73;;;3.27;;
19780;SDS011;10050;55.492;13.506;2022-07-23T05:29:55;5.63;;;2.77;;
19780;SDS011;10050;55.492;13.506;2022-07-23T05:32:21;6.43;;;3.00;;
19780;SDS011;10050;55.492;13.506;2022-07-23T05:34:47;3.93;;;2.63;;
19780;SDS011;10050;55.492;13.506;2022-07-23T05:37:12;5.07;;;2.67;;
19780;SDS011;10050;55.492;13.506;2022-07-23T05:39:38;6.37;;;3.10;;
19780;SDS011;10050;55.492;13.506;2022-07-23T05:42:03;4.87;;;2.90;;
19780;SDS011;10050;55.492;13.506;2022-07-23T05:44:30;6.27;;;2.57;;
19780;SDS011;10050;55.492;13.506;2022-07-23T05:46:56;7.00;;;2.90;;
19780;SDS011;10050;55.492;13.506;2022-07-23T05:49:21;4.53;;;2.23;;
19780;SDS011;10050;55.492;13.506;2022-07-23T05:51:47;4.50;;;2.37;;
19780;SDS011;10050;55.492;13.506;2022-07-23T05:54:13;7.47;;;2.57;;
19780;SDS011;10050;55.492;13.506;2022-07-23T05:56:38;3.70;;;2.07;;
19780;SDS011;10050;55.492;13.506;2022-07-23T05:59:04;7.67;;;2.47;;
19780;SDS011;10050;55.492;13.506;2022-07-23T06:01:29;7.57;;;2.73;;
19780;SDS011;10050;55.492;13.506;2022-07-23T06:03:55;5.77;;;2.30;;
19780;SDS011;10050;55.492;13.506;2022-07-23T06:06:21;4.27;;;2.23;;
19780;SDS011;10050;55.492;13.506;2022-07-23T06:08:46;3.53;;;2.20;;
19780;SDS011;10050;55.492;13.506;2022-07-23T06:11:12;6.27;;;3.00;;
19780;SDS011;10050;55.492;13.506;2022-07-23T06:13:37;4.33;;;2.90;;
19780;SDS011;10050;55.492;13.506;2022-07-23T06:16:03;6.67;;;3.23;;
19780;SDS011;10050;55.492;13.506;2022-07-23T06:18:29;5.17;;;2.93;;
19780;SDS011;10050;55.492;13.506;2022-07-23T06:20:55;4.87;;;2.27;;
19780;SDS011;10050;55.492;13.506;2022-07-23T06:23:20;6.57;;;2.50;;
19780;SDS011;10050;55.492;13.506;2022-07-23T06:25:46;5.30;;;3.27;;
19780;SDS011;10050;55.492;13.506;2022-07-23T06:28:11;7.60;;;3.20;;
19780;SDS011;10050;55.492;13.506;2022-07-23T06:30:37;8.67;;;3.43;;
19780;SDS011;10050;55.492;13.506;2022-07-23T06:33:03;4.43;;;3.03;;
19780;SDS011;10050;55.492;13.506;2022-07-23T06:35:28;6.60;;;3.77;;
19780;SDS011;10050;55.492;13.506;2022-07-23T06:37:54;5.43;;;3.07;;
19780;SDS011;10050;55.492;13.506;2022-07-23T06:40:20;5.53;;;2.50;;
19780;SDS011;10050;55.492;13.506;2022-07-23T06:42:45;6.17;;;2.80;;
19780;SDS011;10050;55.492;13.506;2022-07-23T06:45:11;7.67;;;2.83;;
19780;SDS011;10050;55.492;13.506;2022-07-23T06:47:37;3.97;;;2.40;;
19780;SDS011;10050;55.492;13.506;2022-07-23T06:50:03;8.83;;;2.60;;
19780;SDS011;10050;55.492;13.506;2022-07-23T06:52:30;3.90;;;2.17;;
19780;SDS011;10050;55.492;13.506;2022-07-23T06:54:55;5.73;;;2.40;;
19780;SDS011;10050;55.492;13.506;2022-07-23T06:57:21;4.90;;;2.20;;
19780;SDS011;10050;55.492;13.506;2022-07-23T06:59:46;4.27;;;2.10;;
19780;SDS011;10050;55.492;13.506;2022-07-23T07:02:12;5.43;;;2.40;;
19780;SDS011;10050;55.492;13.506;2022-07-23T07:04:38;3.77;;;1.73;;
19780;SDS011;10050;55.492;13.506;2022-07-23T07:07:03;2.53;;;1.83;;
19780;SDS011;10050;55.492;13.506;2022-07-23T07:09:29;4.90;;;1.70;;
19780;SDS011;10050;55.492;13.506;2022-07-23T07:11:55;4.03;;;1.90;;
19780;SDS011;10050;55.492;13.506;2022-07-23T07:14:21;3.37;;;1.73;;
19780;SDS011;10050;55.492;13.506;2022-07-23T07:16:47;2.83;;;1.60;;
19780;SDS011;10050;55.492;13.506;2022-07-23T07:19:12;2.40;;;1.83;;
19780;SDS011;10050;55.492;13.506;2022-07-23T07:21:38;1.73;;;1.63;;
19780;SDS011;10050;55.492;13.506;2022-07-23T07:24:04;2.40;;;1.67;;
19780;SDS011;10050;55.492;13.506;2022-07-23T07:26:30;3.87;;;1.93;;
19780;SDS011;10050;55.492;13.506;2022-07-23T07:28:56;3.43;;;1.67;;
19780;SDS011;10050;55.492;13.506;2022-07-23T07:31:22;2.93;;;1.67;;
19780;SDS011;10050;55.492;13.506;2022-07-23T07:33:47;2.30;;;1.73;;
19780;SDS011;10050;55.492;13.506;2022-07-23T07:36:13;3.63;;;1.50;;
19780;SDS011;10050;55.492;13.506;2022-07-23T07:38:39;3.83;;;1.80;;
19780;SDS011;10050;55.492;13.506;2022-07-23T07:41:04;2.27;;;1.50;;
19780;SDS011;10050;55.492;13.506;2022-07-23T07:43:30;2.47;;;2.00;;
19780;SDS011;10050;55.492;13.506;2022-07-23T07:45:56;6.50;;;2.23;;
19780;SDS011;10050;55.492;13.506;2022-07-23T07:48:21;4.03;;;1.90;;
19780;SDS011;10050;55.492;13.506;2022-07-23T07:50:47;3.00;;;1.60;;
19780;SDS011;10050;55.492;13.506;2022-07-23T07:53:12;3.90;;;1.90;;
19780;SDS011;10050;55.492;13.506;2022-07-23T07:55:38;5.80;;;1.63;;
19780;SDS011;10050;55.492;13.506;2022-07-23T07:58:04;3.23;;;1.50;;
19780;SDS011;10050;55.492;13.506;2022-07-23T08:00:30;2.33;;;1.53;;
19780;SDS011;10050;55.492;13.506;2022-07-23T08:02:55;2.30;;;1.60;;
19780;SDS011;10050;55.492;13.506;2022-07-23T08:05:22;2.40;;;1.60;;
19780;SDS011;10050;55.492;13.506;2022-07-23T08:07:49;3.13;;;1.53;;
19780;SDS011;10050;55.492;13.506;2022-07-23T08:10:15;5.83;;;1.90;;
19780;SDS011;10050;55.492;13.506;2022-07-23T08:12:42;2.43;;;1.40;;
19780;SDS011;10050;55.492;13.506;2022-07-23T08:15:10;5.53;;;1.70;;
19780;SDS011;10050;55.492;13.506;2022-07-23T08:17:36;3.67;;;1.70;;
19780;SDS011;10050;55.492;13.506;2022-07-23T08:20:03;4.57;;;2.07;;
19780;SDS011;10050;55.492;13.506;2022-07-23T08:25:23;4.43;;;1.90;;
19780;SDS011;10050;55.492;13.506;2022-07-23T08:27:50;3.67;;;1.50;;
19780;SDS011;10050;55.492;13.506;2022-07-23T08:30:16;3.77;;;1.67;;
19780;SDS011;10050;55.492;13.506;2022-07-23T08:33:25;2.50;;;1.50;;
19780;SDS011;10050;55.492;13.506;2022-07-23T08:37:58;4.17;;;1.60;;
19780;SDS011;10050;55.492;13.506;2022-07-23T08:40:26;3.93;;;1.60;;
19780;SDS011;10050;55.492;13.506;2022-07-23T08:42:53;4.60;;;1.97;;
19780;SDS011;10050;55.492;13.506;2022-07-23T08:45:20;3.40;;;1.40;;
19780;SDS011;10050;55.492;13.506;2022-07-23T08:47:50;4.07;;;1.60;;
19780;SDS011;10050;55.492;13.506;2022-07-23T08:50:17;1.83;;;1.50;;
19780;SDS011;10050;55.492;13.506;2022-07-23T08:52:43;2.13;;;1.57;;
19780;SDS011;10050;55.492;13.506;2022-07-23T08:55:10;5.07;;;1.70;;
19780;SDS011;10050;55.492;13.506;2022-07-23T08:57:36;1.90;;;1.50;;
19780;SDS011;10050;55.492;13.506;2022-07-23T09:00:02;1.23;;;1.13;;
19780;SDS011;10050;55.492;13.506;2022-07-23T09:02:31;3.40;;;1.80;;
19780;SDS011;10050;55.492;13.506;2022-07-23T09:05:03;2.60;;;1.67;;
19780;SDS011;10050;55.492;13.506;2022-07-23T09:07:29;4.23;;;1.70;;
19780;SDS011;10050;55.492;13.506;2022-07-23T09:10:05;3.07;;;1.80;;
19780;SDS011;10050;55.492;13.506;2022-07-23T09:12:32;6.30;;;1.90;;
19780;SDS011;10050;55.492;13.506;2022-07-23T09:14:58;3.40;;;1.67;;
19780;SDS011;10050;55.492;13.506;2022-07-23T09:17:30;3.20;;;1.70;;
19780;SDS011;10050;55.492;13.506;2022-07-23T09:20:11;2.43;;;1.57;;
19780;SDS011;10050;55.492;13.506;2022-07-23T09:22:39;3.20;;;1.80;;
19780;SDS011;10050;55.492;13.506;2022-07-23T09:25:17;3.87;;;2.00;;
19780;SDS011;10050;55.492;13.506;2022-07-23T09:27:51;2.77;;;1.40;;
19780;SDS011;10050;55.492;13.506;2022-07-23T09:30:22;2.93;;;1.53;;
19780;SDS011;10050;55.492;13.506;2022-07-23T09:33:02;1.63;;;1.50;;
19780;SDS011;10050;55.492;13.506;2022-07-23T09:38:19;2.17;;;1.30;;
19780;SDS011;10050;55.492;13.506;2022-07-23T09:40:46;2.97;;;1.63;;
19780;SDS011;10050;55.492;13.506;2022-07-23T09:43:31;5.57;;;2.10;;
19780;SDS011;10050;55.492;13.506;2022-07-23T09:46:16;2.73;;;1.80;;
19780;SDS011;10050;55.492;13.506;2022-07-23T09:48:43;3.03;;;1.67;;
19780;SDS011;10050;55.492;13.506;2022-07-23T09:51:08;1.77;;;1.40;;
19780;SDS011;10050;55.492;13.506;2022-07-23T09:53:34;3.00;;;1.90;;
19780;SDS011;10050;55.492;13.506;2022-07-23T09:56:00;3.30;;;1.70;;
19780;SDS011;10050;55.492;13.506;2022-07-23T09:58:27;3.57;;;1.67;;
19780;SDS011;10050;55.492;13.506;2022-07-23T10:00:53;1.93;;;1.50;;
19780;SDS011;10050;55.492;13.506;2022-07-23T10:03:20;2.70;;;1.50;;
19780;SDS011;10050;55.492;13.506;2022-07-23T10:05:46;1.23;;;1.13;;
19780;SDS011;10050;55.492;13.506;2022-07-23T10:08:13;2.67;;;1.40;;
19780;SDS011;10050;55.492;13.506;2022-07-23T10:10:41;1.97;;;1.30;;
19780;SDS011;10050;55.492;13.506;2022-07-23T10:13:08;3.70;;;1.10;;
19780;SDS011;10050;55.492;13.506;2022-07-23T10:16:09;1.00;;;0.90;;
19780;SDS011;10050;55.492;13.506;2022-07-23T10:18:34;2.23;;;0.90;;
19780;SDS011;10050;55.492;13.506;2022-07-23T10:21:00;0.53;;;0.53;;
19780;SDS011;10050;55.492;13.506;2022-07-23T10:29:36;0.87;;;0.87;;
19780;SDS011;10050;55.492;13.506;2022-07-23T10:40:13;3.57;;;1.20;;
19780;SDS011;10050;55.492;13.506;2022-07-23T10:42:42;2.03;;;0.93;;
19780;SDS011;10050;55.492;13.506;2022-07-23T10:45:54;1.33;;;1.07;;
19780;SDS011;10050;55.492;13.506;2022-07-23T10:48:14;2.50;;;1.57;;
19780;SDS011;10050;55.492;13.506;2022-07-23T10:51:11;2.40;;;1.20;;
19780;SDS011;10050;55.492;13.506;2022-07-23T10:53:57;2.23;;;1.00;;
19780;SDS011;10050;55.492;13.506;2022-07-23T10:59:19;1.30;;;0.90;;
19780;SDS011;10050;55.492;13.506;2022-07-23T11:01:45;1.10;;;0.97;;
19780;SDS011;10050;55.492;13.506;2022-07-23T11:04:11;0.90;;;0.90;;
19780;SDS011;10050;55.492;13.506;2022-07-23T11:09:26;0.97;;;0.97;;
19780;SDS011;10050;55.492;13.506;2022-07-23T11:12:40;2.10;;;1.00;;
19780;SDS011;10050;55.492;13.506;2022-07-23T11:25:10;0.90;;;0.90;;
19780;SDS011;10050;55.492;13.506;2022-07-23T11:27:39;2.10;;;1.00;;
19780;SDS011;10050;55.492;13.506;2022-07-23T11:30:09;2.97;;;1.00;;
19780;SDS011;10050;55.492;13.506;2022-07-23T11:35:34;1.30;;;1.20;;
19780;SDS011;10050;55.492;13.506;2022-07-23T11:38:07;1.97;;;1.57;;
19780;SDS011;10050;55.492;13.506;2022-07-23T11:40:40;2.73;;;1.30;;
19780;SDS011;10050;55.492;13.506;2022-07-23T11:43:09;1.43;;;1.10;;
19780;SDS011;10050;55.492;13.506;2022-07-23T11:45:39;2.00;;;1.27;;
19780;SDS011;10050;55.492;13.506;2022-07-23T11:48:08;2.03;;;1.40;;
19780;SDS011;10050;55.492;13.506;2022-07-23T11:50:34;1.50;;;1.10;;
19780;SDS011;10050;55.492;13.506;2022-07-23T11:53:01;1.87;;;1.50;;
19780;SDS011;10050;55.492;13.506;2022-07-23T11:55:27;1.40;;;1.20;;
19780;SDS011;10050;55.492;13.506;2022-07-23T11:57:55;2.20;;;1.17;;
19780;SDS011;10050;55.492;13.506;2022-07-23T12:00:23;2.10;;;1.50;;
19780;SDS011;10050;55.492;13.506;2022-07-23T12:02:51;1.27;;;1.17;;
19780;SDS011;10050;55.492;13.506;2022-07-23T12:05:23;1.70;;;1.37;;
19780;SDS011;10050;55.492;13.506;2022-07-23T12:07:53;1.00;;;1.00;;
19780;SDS011;10050;55.492;13.506;2022-07-23T12:15:19;2.07;;;1.10;;
19780;SDS011;10050;55.492;13.506;2022-07-23T12:17:47;1.17;;;1.17;;
19780;SDS011;10050;55.492;13.506;2022-07-23T12:20:15;1.50;;;1.40;;
19780;SDS011;10050;55.492;13.506;2022-07-23T12:22:44;1.43;;;1.10;;
19780;SDS011;10050;55.492;13.506;2022-07-23T12:27:40;1.50;;;1.40;;
19780;SDS011;10050;55.492;13.506;2022-07-23T12:32:45;1.90;;;1.70;;
19780;SDS011;10050;55.492;13.506;2022-07-23T12:35:12;1.77;;;1.40;;
19780;SDS011;10050;55.492;13.506;2022-07-23T12:37:39;1.30;;;1.30;;
19780;SDS011;10050;55.492;13.506;2022-07-23T12:40:23;1.80;;;1.60;;
19780;SDS011;10050;55.492;13.506;2022-07-23T12:42:50;1.33;;;1.30;;
19780;SDS011;10050;55.492;13.506;2022-07-23T12:45:17;1.47;;;1.30;;
19780;SDS011;10050;55.492;13.506;2022-07-23T12:47:50;1.20;;;1.20;;
19780;SDS011;10050;55.492;13.506;2022-07-23T12:53:12;1.03;;;1.03;;
19780;SDS011;10050;55.492;13.506;2022-07-23T12:55:41;1.20;;;1.10;;
19780;SDS011;10050;55.492;13.506;2022-07-23T12:58:11;1.10;;;1.03;;
19780;SDS011;10050;55.492;13.506;2022-07-23T13:03:23;1.27;;;1.07;;
19780;SDS011;10050;55.492;13.506;2022-07-23T13:05:51;2.17;;;1.00;;
19780;SDS011;10050;55.492;13.506;2022-07-23T13:08:16;1.20;;;1.10;;
19780;SDS011;10050;55.492;13.506;2022-07-23T13:10:42;0.97;;;0.90;;
19780;SDS011;10050;55.492;13.506;2022-07-23T13:13:09;1.03;;;1.03;;
19780;SDS011;10050;55.492;13.506;2022-07-23T13:15:35;1.13;;;0.80;;
19780;SDS011;10050;55.492;13.506;2022-07-23T13:18:01;1.10;;;1.10;;
19780;SDS011;10050;55.492;13.506;2022-07-23T13:20:26;1.20;;;0.90;;
19780;SDS011;10050;55.492;13.506;2022-07-23T13:22:52;0.90;;;0.90;;
19780;SDS011;10050;55.492;13.506;2022-07-23T13:25:18;0.90;;;0.90;;
19780;SDS011;10050;55.492;13.506;2022-07-23T13:27:44;1.07;;;0.83;;
19780;SDS011;10050;55.492;13.506;2022-07-23T13:30:09;0.80;;;0.80;;
19780;SDS011;10050;55.492;13.506;2022-07-23T13:32:36;0.93;;;0.93;;
19780;SDS011;10050;55.492;13.506;2022-07-23T13:35:02;1.60;;;0.83;;
19780;SDS011;10050;55.492;13.506;2022-07-23T13:37:28;0.80;;;0.80;;
19780;SDS011;10050;55.492;13.506;2022-07-23T13:39:54;1.70;;;0.80;;
19780;SDS011;10050;55.492;13.506;2022-07-23T13:42:19;0.70;;;0.70;;
19780;SDS011;10050;55.492;13.506;2022-07-23T13:44:45;2.20;;;1.40;;
19780;SDS011;10050;55.492;13.506;2022-07-23T13:47:11;1.23;;;1.23;;
19780;SDS011;10050;55.492;13.506;2022-07-23T13:49:37;1.10;;;0.97;;
19780;SDS011;10050;55.492;13.506;2022-07-23T13:52:03;0.80;;;0.80;;
19780;SDS011;10050;55.492;13.506;2022-07-23T13:54:29;1.00;;;1.00;;
19780;SDS011;10050;55.492;13.506;2022-07-23T13:56:55;1.00;;;1.00;;
19780;SDS011;10050;55.492;13.506;2022-07-23T13:59:20;0.87;;;0.87;;
19780;SDS011;10050;55.492;13.506;2022-07-23T14:01:46;0.70;;;0.70;;
19780;SDS011;10050;55.492;13.506;2022-07-23T14:04:12;1.10;;;1.00;;
19780;SDS011;10050;55.492;13.506;2022-07-23T14:06:37;1.13;;;0.90;;
19780;SDS011;10050;55.492;13.506;2022-07-23T14:09:03;0.77;;;0.70;;
19780;SDS011;10050;55.492;13.506;2022-07-23T14:11:29;0.77;;;0.77;;
19780;SDS011;10050;55.492;13.506;2022-07-23T14:13:55;0.93;;;0.93;;
19780;SDS011;10050;55.492;13.506;2022-07-23T14:16:21;1.40;;;0.90;;
19780;SDS011;10050;55.492;13.506;2022-07-23T14:18:48;1.20;;;0.80;;
19780;SDS011;10050;55.492;13.506;2022-07-23T14:21:13;1.87;;;1.13;;
19780;SDS011;10050;55.492;13.506;2022-07-23T14:23:39;0.90;;;0.90;;
19780;SDS011;10050;55.492;13.506;2022-07-23T14:26:04;2.13;;;1.00;;
19780;SDS011;10050;55.492;13.506;2022-07-23T14:28:32;0.90;;;0.90;;
19780;SDS011;10050;55.492;13.506;2022-07-23T14:30:58;1.47;;;1.17;;
19780;SDS011;10050;55.492;13.506;2022-07-23T14:33:23;1.30;;;1.13;;
19780;SDS011;10050;55.492;13.506;2022-07-23T14:35:49;3.37;;;1.03;;
19780;SDS011;10050;55.492;13.506;2022-07-23T14:38:15;1.40;;;1.30;;
19780;SDS011;10050;55.492;13.506;2022-07-23T14:40:41;1.20;;;1.10;;
19780;SDS011;10050;55.492;13.506;2022-07-23T14:43:07;0.93;;;0.90;;
19780;SDS011;10050;55.492;13.506;2022-07-23T14:45:33;3.03;;;1.10;;
19780;SDS011;10050;55.492;13.506;2022-07-23T14:47:58;0.90;;;0.90;;
19780;SDS011;10050;55.492;13.506;2022-07-23T14:50:24;0.83;;;0.83;;
19780;SDS011;10050;55.492;13.506;2022-07-23T14:52:51;0.80;;;0.77;;
19780;SDS011;10050;55.492;13.506;2022-07-23T14:55:16;0.87;;;0.87;;
19780;SDS011;10050;55.492;13.506;2022-07-23T14:57:43;0.77;;;0.77;;
19780;SDS011;10050;55.492;13.506;2022-07-23T15:00:08;0.63;;;0.63;;
19780;SDS011;10050;55.492;13.506;2022-07-23T15:02:34;0.90;;;0.90;;
19780;SDS011;10050;55.492;13.506;2022-07-23T15:05:00;1.53;;;1.53;;
19780;SDS011;10050;55.492;13.506;2022-07-23T15:07:27;0.80;;;0.80;;
19780;SDS011;10050;55.492;13.506;2022-07-23T15:09:54;0.80;;;0.80;;
19780;SDS011;10050;55.492;13.506;2022-07-23T15:12:23;1.10;;;1.00;;
19780;SDS011;10050;55.492;13.506;2022-07-23T15:14:49;1.33;;;0.80;;
19780;SDS011;10050;55.492;13.506;2022-07-23T15:17:15;0.90;;;0.90;;
19780;SDS011;10050;55.492;13.506;2022-07-23T15:19:40;1.67;;;0.90;;
19780;SDS011;10050;55.492;13.506;2022-07-23T15:22:06;0.90;;;0.90;;
19780;SDS011;10050;55.492;13.506;2022-07-23T15:24:32;0.70;;;0.70;;
19780;SDS011;10050;55.492;13.506;2022-07-23T15:26:57;0.80;;;0.80;;
19780;SDS011;10050;55.492;13.506;2022-07-23T15:29:23;1.07;;;0.90;;